sensor_id;sensor_type;location;lat;lon;timestamp;P1;durP1;ratioP1;P2;durP2;ratioP2
2390;SDS011;22957;50.824;4.360;2022-09-02T00:01:18;5.47;;;2.20;;
2390;SDS011;22957;50.824;4.360;2022-09-02T00:03:48;3.97;;;2.17;;
2390;SDS011;22957;50.824;4.360;2022-09-02T00:06:15;4.90;;;2.33;;
2390;SDS011;22957;50.824;4.360;2022-09-02T00:08:42;3.83;;;2.40;;
2390;SDS011;22957;50.824;4.360;2022-09-02T00:11:11;5.23;;;2.67;;
2390;SDS011;22957;50.824;4.360;2022-09-02T00:13:39;4.03;;;1.90;;
2390;SDS011;22957;50.824;4.360;2022-09-02T00:16:05;9.10;;;2.37;;
2390;SDS011;22957;50.824;4.360;2022-09-02T00:18:31;3.57;;;1.70;;
2390;SDS011;22957;50.824;4.360;2022-09-02T00:20:58;2.73;;;2.23;;
2390;SDS011;22957;50.824;4.360;2022-09-02T00:23:23;3.10;;;2.37;;
2390;SDS011;22957;50.824;4.360;2022-09-02T00:25:49;4.17;;;2.40;;
2390;SDS011;22957;50.824;4.360;2022-09-02T00:28:15;8.50;;;2.27;;
2390;SDS011;22957;50.824;4.360;2022-09-02T00:30:41;6.17;;;2.70;;
2390;SDS011;22957;50.824;4.360;2022-09-02T00:33:09;3.10;;;2.10;;
2390;SDS011;22957;50.824;4.360;2022-09-02T00:35:35;3.30;;;2.27;;
2390;SDS011;22957;50.824;4.360;2022-09-02T00:38:01;5.63;;;2.57;;
2390;SDS011;22957;50.824;4.360;2022-09-02T00:40:28;2.43;;;2.23;;
2390;SDS011;22957;50.824;4.360;2022-09-02T00:42:54;4.70;;;2.73;;
2390;SDS011;22957;50.824;4.360;2022-09-02T00:45:20;4.50;;;2.00;;
2390;SDS011;22957;50.824;4.360;2022-09-02T00:47:46;3.30;;;2.43;;
2390;SDS011;22957;50.824;4.360;2022-09-02T00:50:16;7.70;;;2.67;;
2390;SDS011;22957;50.824;4.360;2022-09-02T00:52:46;4.80;;;2.97;;
2390;SDS011;22957;50.824;4.360;2022-09-02T00:55:27;3.57;;;2.37;;
2390;SDS011;22957;50.824;4.360;2022-09-02T00:58:04;6.53;;;2.40;;
2390;SDS011;22957;50.824;4.360;2022-09-02T01:00:34;5.70;;;2.30;;
2390;SDS011;22957;50.824;4.360;2022-09-02T01:03:05;3.83;;;2.40;;
2390;SDS011;22957;50.824;4.360;2022-09-02T01:05:34;7.63;;;2.00;;
2390;SDS011;22957;50.824;4.360;2022-09-02T01:08:02;2.93;;;2.23;;
2390;SDS011;22957;50.824;4.360;2022-09-02T01:10:32;3.27;;;2.47;;
2390;SDS011;22957;50.824;4.360;2022-09-02T01:13:10;6.17;;;2.70;;
2390;SDS011;22957;50.824;4.360;2022-09-02T01:15:41;3.73;;;2.40;;
2390;SDS011;22957;50.824;4.360;2022-09-02T01:18:12;4.80;;;2.37;;
2390;SDS011;22957;50.824;4.360;2022-09-02T01:20:40;6.47;;;2.57;;
2390;SDS011;22957;50.824;4.360;2022-09-02T01:23:06;4.50;;;2.23;;
2390;SDS011;22957;50.824;4.360;2022-09-02T01:25:33;2.40;;;2.20;;
2390;SDS011;22957;50.824;4.360;2022-09-02T01:28:00;3.07;;;2.43;;
2390;SDS011;22957;50.824;4.360;2022-09-02T01:30:31;3.67;;;2.20;;
2390;SDS011;22957;50.824;4.360;2022-09-02T01:32:58;4.10;;;2.43;;
2390;SDS011;22957;50.824;4.360;2022-09-02T01:35:26;3.33;;;2.47;;
2390;SDS011;22957;50.824;4.360;2022-09-02T01:37:53;3.87;;;2.63;;
2390;SDS011;22957;50.824;4.360;2022-09-02T01:40:23;3.57;;;2.50;;
2390;SDS011;22957;50.824;4.360;2022-09-02T01:42:53;2.77;;;2.20;;
2390;SDS011;22957;50.824;4.360;2022-09-02T01:45:27;4.63;;;2.50;;
2390;SDS011;22957;50.824;4.360;2022-09-02T01:47:53;7.57;;;2.70;;
2390;SDS011;22957;50.824;4.360;2022-09-02T01:50:21;3.73;;;2.67;;
2390;SDS011;22957;50.824;4.360;2022-09-02T01:52:46;7.67;;;2.77;;
2390;SDS011;22957;50.824;4.360;2022-09-02T01:55:12;7.23;;;2.50;;
2390;SDS011;22957;50.824;4.360;2022-09-02T01:57:38;5.70;;;2.40;;
2390;SDS011;22957;50.824;4.360;2022-09-02T02:00:05;5.90;;;3.00;;
2390;SDS011;22957;50.824;4.360;2022-09-02T02:02:33;2.20;;;2.00;;
2390;SDS011;22957;50.824;4.360;2022-09-02T02:04:58;2.30;;;2.10;;
2390;SDS011;22957;50.824;4.360;2022-09-02T02:07:24;6.97;;;2.53;;
2390;SDS011;22957;50.824;4.360;2022-09-02T02:09:50;4.53;;;2.17;;
2390;SDS011;22957;50.824;4.360;2022-09-02T02:12:16;5.80;;;2.33;;
2390;SDS011;22957;50.824;4.360;2022-09-02T02:14:43;4.13;;;2.57;;
2390;SDS011;22957;50.824;4.360;2022-09-02T02:17:09;5.27;;;3.00;;
2390;SDS011;22957;50.824;4.360;2022-09-02T02:19:35;3.43;;;2.33;;
2390;SDS011;22957;50.824;4.360;2022-09-02T02:22:01;2.83;;;2.37;;
2390;SDS011;22957;50.824;4.360;2022-09-02T02:24:27;3.00;;;2.40;;
2390;SDS011;22957;50.824;4.360;2022-09-02T02:26:53;4.33;;;2.33;;
2390;SDS011;22957;50.824;4.360;2022-09-02T02:29:19;3.40;;;2.23;;
2390;SDS011;22957;50.824;4.360;2022-09-02T02:31:45;8.43;;;3.30;;
2390;SDS011;22957;50.824;4.360;2022-09-02T02:34:11;5.90;;;2.80;;
2390;SDS011;22957;50.824;4.360;2022-09-02T02:36:37;4.17;;;2.47;;
2390;SDS011;22957;50.824;4.360;2022-09-02T02:39:04;4.93;;;2.50;;
2390;SDS011;22957;50.824;4.360;2022-09-02T02:41:31;7.73;;;2.53;;
2390;SDS011;22957;50.824;4.360;2022-09-02T02:43:57;3.47;;;2.47;;
2390;SDS011;22957;50.824;4.360;2022-09-02T02:46:23;5.50;;;2.57;;
2390;SDS011;22957;50.824;4.360;2022-09-02T02:48:49;3.40;;;2.97;;
2390;SDS011;22957;50.824;4.360;2022-09-02T02:51:15;3.50;;;2.43;;
2390;SDS011;22957;50.824;4.360;2022-09-02T02:53:40;6.27;;;3.23;;
2390;SDS011;22957;50.824;4.360;2022-09-02T02:56:06;4.00;;;2.73;;
2390;SDS011;22957;50.824;4.360;2022-09-02T02:58:32;5.77;;;2.60;;
2390;SDS011;22957;50.824;4.360;2022-09-02T03:00:58;4.30;;;2.67;;
2390;SDS011;22957;50.824;4.360;2022-09-02T03:03:25;5.73;;;3.30;;
2390;SDS011;22957;50.824;4.360;2022-09-02T03:05:51;3.87;;;2.50;;
2390;SDS011;22957;50.824;4.360;2022-09-02T03:08:18;4.50;;;2.23;;
2390;SDS011;22957;50.824;4.360;2022-09-02T03:10:45;6.60;;;3.07;;
2390;SDS011;22957;50.824;4.360;2022-09-02T03:13:18;8.90;;;2.70;;
2390;SDS011;22957;50.824;4.360;2022-09-02T03:15:45;4.57;;;3.60;;
2390;SDS011;22957;50.824;4.360;2022-09-02T03:18:11;4.17;;;2.53;;
2390;SDS011;22957;50.824;4.360;2022-09-02T03:20:38;3.87;;;2.70;;
2390;SDS011;22957;50.824;4.360;2022-09-02T03:23:04;4.20;;;2.33;;
2390;SDS011;22957;50.824;4.360;2022-09-02T03:25:31;3.70;;;2.70;;
2390;SDS011;22957;50.824;4.360;2022-09-02T03:27:58;3.73;;;2.50;;
2390;SDS011;22957;50.824;4.360;2022-09-02T03:30:25;4.70;;;2.80;;
2390;SDS011;22957;50.824;4.360;2022-09-02T03:32:53;5.90;;;2.40;;
2390;SDS011;22957;50.824;4.360;2022-09-02T03:35:21;3.93;;;2.50;;
2390;SDS011;22957;50.824;4.360;2022-09-02T03:37:48;4.17;;;2.63;;
2390;SDS011;22957;50.824;4.360;2022-09-02T03:40:17;6.57;;;3.20;;
2390;SDS011;22957;50.824;4.360;2022-09-02T03:42:47;4.13;;;2.30;;
2390;SDS011;22957;50.824;4.360;2022-09-02T03:45:14;2.90;;;2.60;;
2390;SDS011;22957;50.824;4.360;2022-09-02T03:47:42;5.47;;;3.00;;
2390;SDS011;22957;50.824;4.360;2022-09-02T03:50:22;7.87;;;3.23;;
2390;SDS011;22957;50.824;4.360;2022-09-02T03:52:54;5.67;;;2.80;;
2390;SDS011;22957;50.824;4.360;2022-09-02T03:55:21;4.23;;;2.90;;
2390;SDS011;22957;50.824;4.360;2022-09-02T03:57:47;8.53;;;3.40;;
2390;SDS011;22957;50.824;4.360;2022-09-02T04:00:15;5.17;;;3.10;;
2390;SDS011;22957;50.824;4.360;2022-09-02T04:02:46;8.03;;;3.40;;
2390;SDS011;22957;50.824;4.360;2022-09-02T04:05:12;6.40;;;3.23;;
2390;SDS011;22957;50.824;4.360;2022-09-02T04:07:39;3.37;;;2.83;;
2390;SDS011;22957;50.824;4.360;2022-09-02T04:10:07;5.17;;;3.20;;
2390;SDS011;22957;50.824;4.360;2022-09-02T04:12:36;7.00;;;3.40;;
2390;SDS011;22957;50.824;4.360;2022-09-02T04:15:03;5.90;;;3.07;;
2390;SDS011;22957;50.824;4.360;2022-09-02T04:17:30;4.83;;;3.10;;
2390;SDS011;22957;50.824;4.360;2022-09-02T04:19:59;5.63;;;3.20;;
2390;SDS011;22957;50.824;4.360;2022-09-02T04:22:25;5.83;;;3.33;;
2390;SDS011;22957;50.824;4.360;2022-09-02T04:24:52;6.73;;;2.87;;
2390;SDS011;22957;50.824;4.360;2022-09-02T04:27:19;4.63;;;3.43;;
2390;SDS011;22957;50.824;4.360;2022-09-02T04:29:46;2.80;;;2.60;;
2390;SDS011;22957;50.824;4.360;2022-09-02T04:32:12;4.53;;;3.20;;
2390;SDS011;22957;50.824;4.360;2022-09-02T04:34:40;7.70;;;3.37;;
2390;SDS011;22957;50.824;4.360;2022-09-02T04:37:06;4.97;;;3.13;;
2390;SDS011;22957;50.824;4.360;2022-09-02T04:39:33;5.43;;;3.30;;
2390;SDS011;22957;50.824;4.360;2022-09-02T04:41:59;5.20;;;3.43;;
2390;SDS011;22957;50.824;4.360;2022-09-02T04:44:25;4.27;;;3.87;;
2390;SDS011;22957;50.824;4.360;2022-09-02T04:46:51;4.00;;;3.60;;
2390;SDS011;22957;50.824;4.360;2022-09-02T04:49:19;11.40;;;3.80;;
2390;SDS011;22957;50.824;4.360;2022-09-02T04:51:46;5.70;;;4.07;;
2390;SDS011;22957;50.824;4.360;2022-09-02T04:54:12;5.93;;;3.63;;
2390;SDS011;22957;50.824;4.360;2022-09-02T04:56:38;4.67;;;2.93;;
2390;SDS011;22957;50.824;4.360;2022-09-02T04:59:04;6.60;;;2.70;;
2390;SDS011;22957;50.824;4.360;2022-09-02T05:01:32;5.00;;;2.93;;
2390;SDS011;22957;50.824;4.360;2022-09-02T05:03:59;3.37;;;3.07;;
2390;SDS011;22957;50.824;4.360;2022-09-02T05:06:27;9.83;;;2.97;;
2390;SDS011;22957;50.824;4.360;2022-09-02T05:08:55;6.80;;;3.63;;
2390;SDS011;22957;50.824;4.360;2022-09-02T05:11:25;5.77;;;2.90;;
2390;SDS011;22957;50.824;4.360;2022-09-02T05:13:53;6.77;;;4.03;;
2390;SDS011;22957;50.824;4.360;2022-09-02T05:16:21;3.47;;;2.80;;
2390;SDS011;22957;50.824;4.360;2022-09-02T05:18:56;3.57;;;3.27;;
2390;SDS011;22957;50.824;4.360;2022-09-02T05:21:25;8.90;;;3.60;;
2390;SDS011;22957;50.824;4.360;2022-09-02T05:23:51;9.17;;;3.60;;
2390;SDS011;22957;50.824;4.360;2022-09-02T05:26:17;4.50;;;3.07;;
2390;SDS011;22957;50.824;4.360;2022-09-02T05:28:44;3.70;;;3.07;;
2390;SDS011;22957;50.824;4.360;2022-09-02T05:31:14;9.33;;;3.63;;
2390;SDS011;22957;50.824;4.360;2022-09-02T05:33:41;5.53;;;3.07;;
2390;SDS011;22957;50.824;4.360;2022-09-02T05:36:09;8.60;;;3.87;;
2390;SDS011;22957;50.824;4.360;2022-09-02T05:38:37;3.67;;;3.37;;
2390;SDS011;22957;50.824;4.360;2022-09-02T05:41:05;9.33;;;3.23;;
2390;SDS011;22957;50.824;4.360;2022-09-02T05:43:41;3.67;;;3.37;;
2390;SDS011;22957;50.824;4.360;2022-09-02T05:46:13;8.33;;;4.00;;
2390;SDS011;22957;50.824;4.360;2022-09-02T05:48:41;5.80;;;3.30;;
2390;SDS011;22957;50.824;4.360;2022-09-02T05:51:27;7.63;;;3.60;;
2390;SDS011;22957;50.824;4.360;2022-09-02T05:53:54;3.97;;;3.30;;
2390;SDS011;22957;50.824;4.360;2022-09-02T05:56:22;8.33;;;3.60;;
2390;SDS011;22957;50.824;4.360;2022-09-02T05:58:49;6.23;;;3.70;;
2390;SDS011;22957;50.824;4.360;2022-09-02T06:01:15;4.57;;;3.37;;
2390;SDS011;22957;50.824;4.360;2022-09-02T06:03:42;5.37;;;3.63;;
2390;SDS011;22957;50.824;4.360;2022-09-02T06:06:08;4.27;;;3.03;;
2390;SDS011;22957;50.824;4.360;2022-09-02T06:08:34;6.40;;;3.43;;
2390;SDS011;22957;50.824;4.360;2022-09-02T06:11:01;7.63;;;3.57;;
2390;SDS011;22957;50.824;4.360;2022-09-02T06:13:28;11.63;;;3.83;;
2390;SDS011;22957;50.824;4.360;2022-09-02T06:15:55;7.23;;;3.60;;
2390;SDS011;22957;50.824;4.360;2022-09-02T06:18:22;4.50;;;3.60;;
2390;SDS011;22957;50.824;4.360;2022-09-02T06:20:48;5.03;;;3.30;;
2390;SDS011;22957;50.824;4.360;2022-09-02T06:23:14;10.97;;;3.90;;
2390;SDS011;22957;50.824;4.360;2022-09-02T06:25:42;6.83;;;3.20;;
2390;SDS011;22957;50.824;4.360;2022-09-02T06:28:10;5.93;;;3.20;;
2390;SDS011;22957;50.824;4.360;2022-09-02T06:30:40;11.90;;;3.10;;
2390;SDS011;22957;50.824;4.360;2022-09-02T06:33:08;13.50;;;3.30;;
2390;SDS011;22957;50.824;4.360;2022-09-02T06:35:35;7.00;;;2.90;;
2390;SDS011;22957;50.824;4.360;2022-09-02T06:38:03;6.90;;;2.90;;
2390;SDS011;22957;50.824;4.360;2022-09-02T06:40:29;4.20;;;3.23;;
2390;SDS011;22957;50.824;4.360;2022-09-02T06:42:55;7.90;;;3.60;;
2390;SDS011;22957;50.824;4.360;2022-09-02T06:45:21;5.90;;;3.40;;
2390;SDS011;22957;50.824;4.360;2022-09-02T06:47:48;15.10;;;3.67;;
2390;SDS011;22957;50.824;4.360;2022-09-02T06:50:14;9.37;;;3.50;;
2390;SDS011;22957;50.824;4.360;2022-09-02T06:52:40;6.23;;;3.20;;
2390;SDS011;22957;50.824;4.360;2022-09-02T06:55:07;6.50;;;3.70;;
2390;SDS011;22957;50.824;4.360;2022-09-02T06:57:35;7.33;;;3.27;;
2390;SDS011;22957;50.824;4.360;2022-09-02T07:00:06;7.63;;;3.20;;
2390;SDS011;22957;50.824;4.360;2022-09-02T07:02:34;8.43;;;3.57;;
2390;SDS011;22957;50.824;4.360;2022-09-02T07:05:01;6.70;;;4.13;;
2390;SDS011;22957;50.824;4.360;2022-09-02T07:07:40;14.13;;;4.40;;
2390;SDS011;22957;50.824;4.360;2022-09-02T07:10:08;11.63;;;3.60;;
2390;SDS011;22957;50.824;4.360;2022-09-02T07:12:37;7.80;;;3.13;;
2390;SDS011;22957;50.824;4.360;2022-09-02T07:15:04;6.00;;;3.07;;
2390;SDS011;22957;50.824;4.360;2022-09-02T07:17:31;10.30;;;3.30;;
2390;SDS011;22957;50.824;4.360;2022-09-02T07:19:57;14.43;;;10.17;;
2390;SDS011;22957;50.824;4.360;2022-09-02T07:22:27;4.30;;;3.33;;
2390;SDS011;22957;50.824;4.360;2022-09-02T07:24:53;3.47;;;2.93;;
2390;SDS011;22957;50.824;4.360;2022-09-02T07:27:20;4.60;;;2.80;;
2390;SDS011;22957;50.824;4.360;2022-09-02T07:29:46;5.90;;;2.50;;
2390;SDS011;22957;50.824;4.360;2022-09-02T07:32:13;3.83;;;2.70;;
2390;SDS011;22957;50.824;4.360;2022-09-02T07:34:42;8.07;;;2.70;;
2390;SDS011;22957;50.824;4.360;2022-09-02T07:37:08;3.30;;;2.87;;
2390;SDS011;22957;50.824;4.360;2022-09-02T07:39:34;8.00;;;2.50;;
2390;SDS011;22957;50.824;4.360;2022-09-02T07:42:00;5.00;;;2.60;;
2390;SDS011;22957;50.824;4.360;2022-09-02T07:44:26;4.13;;;2.60;;
2390;SDS011;22957;50.824;4.360;2022-09-02T07:46:52;5.90;;;2.40;;
2390;SDS011;22957;50.824;4.360;2022-09-02T07:49:18;4.13;;;3.13;;
2390;SDS011;22957;50.824;4.360;2022-09-02T07:51:46;6.00;;;3.67;;
2390;SDS011;22957;50.824;4.360;2022-09-02T07:54:14;8.50;;;3.17;;
2390;SDS011;22957;50.824;4.360;2022-09-02T07:56:42;2.67;;;1.83;;
2390;SDS011;22957;50.824;4.360;2022-09-02T07:59:10;9.03;;;3.10;;
2390;SDS011;22957;50.824;4.360;2022-09-02T08:01:36;7.40;;;3.23;;
2390;SDS011;22957;50.824;4.360;2022-09-02T08:04:03;4.93;;;2.60;;
2390;SDS011;22957;50.824;4.360;2022-09-02T08:06:30;4.80;;;2.90;;
2390;SDS011;22957;50.824;4.360;2022-09-02T08:08:57;5.10;;;2.97;;
2390;SDS011;22957;50.824;4.360;2022-09-02T08:11:23;3.93;;;2.40;;
2390;SDS011;22957;50.824;4.360;2022-09-02T08:13:49;6.20;;;2.70;;
2390;SDS011;22957;50.824;4.360;2022-09-02T08:16:15;6.70;;;2.30;;
2390;SDS011;22957;50.824;4.360;2022-09-02T08:18:41;9.80;;;5.50;;
2390;SDS011;22957;50.824;4.360;2022-09-02T08:21:07;6.80;;;2.73;;
2390;SDS011;22957;50.824;4.360;2022-09-02T08:23:33;9.87;;;2.83;;
2390;SDS011;22957;50.824;4.360;2022-09-02T08:26:00;4.63;;;3.40;;
2390;SDS011;22957;50.824;4.360;2022-09-02T08:28:26;3.30;;;2.30;;
2390;SDS011;22957;50.824;4.360;2022-09-02T08:30:53;5.30;;;2.70;;
2390;SDS011;22957;50.824;4.360;2022-09-02T08:33:21;4.73;;;2.77;;
2390;SDS011;22957;50.824;4.360;2022-09-02T08:35:47;3.60;;;2.17;;
2390;SDS011;22957;50.824;4.360;2022-09-02T08:38:14;2.67;;;2.20;;
2390;SDS011;22957;50.824;4.360;2022-09-02T08:40:40;5.23;;;2.60;;
2390;SDS011;22957;50.824;4.360;2022-09-02T08:43:18;5.10;;;3.10;;
2390;SDS011;22957;50.824;4.360;2022-09-02T08:46:01;4.27;;;2.70;;
2390;SDS011;22957;50.824;4.360;2022-09-02T08:48:37;8.13;;;2.53;;
2390;SDS011;22957;50.824;4.360;2022-09-02T08:51:09;5.13;;;2.27;;
2390;SDS011;22957;50.824;4.360;2022-09-02T08:54:01;2.80;;;2.30;;
2390;SDS011;22957;50.824;4.360;2022-09-02T08:56:34;4.03;;;1.80;;
2390;SDS011;22957;50.824;4.360;2022-09-02T08:59:00;7.63;;;2.10;;
2390;SDS011;22957;50.824;4.360;2022-09-02T09:04:48;5.70;;;2.33;;
2390;SDS011;22957;50.824;4.360;2022-09-02T09:07:54;3.70;;;2.43;;
2390;SDS011;22957;50.824;4.360;2022-09-02T09:13:13;4.07;;;2.20;;
2390;SDS011;22957;50.824;4.360;2022-09-02T09:18:30;4.43;;;2.53;;
2390;SDS011;22957;50.824;4.360;2022-09-02T09:21:02;4.07;;;2.00;;
2390;SDS011;22957;50.824;4.360;2022-09-02T09:23:30;4.63;;;2.90;;
2390;SDS011;22957;50.824;4.360;2022-09-02T09:26:04;4.30;;;2.10;;
2390;SDS011;22957;50.824;4.360;2022-09-02T09:28:31;3.63;;;2.37;;
2390;SDS011;22957;50.824;4.360;2022-09-02T09:31:10;3.57;;;3.13;;
2390;SDS011;22957;50.824;4.360;2022-09-02T09:33:58;7.57;;;2.33;;
2390;SDS011;22957;50.824;4.360;2022-09-02T09:39:19;4.23;;;2.00;;
2390;SDS011;22957;50.824;4.360;2022-09-02T09:41:45;3.40;;;1.70;;
2390;SDS011;22957;50.824;4.360;2022-09-02T09:47:16;5.10;;;2.50;;
2390;SDS011;22957;50.824;4.360;2022-09-02T09:50:08;4.40;;;2.37;;
2390;SDS011;22957;50.824;4.360;2022-09-02T09:52:40;3.60;;;2.40;;
2390;SDS011;22957;50.824;4.360;2022-09-02T09:55:18;4.33;;;2.00;;
2390;SDS011;22957;50.824;4.360;2022-09-02T09:57:46;2.50;;;2.20;;
2390;SDS011;22957;50.824;4.360;2022-09-02T10:00:27;3.53;;;1.97;;
2390;SDS011;22957;50.824;4.360;2022-09-02T10:02:59;7.60;;;2.40;;
2390;SDS011;22957;50.824;4.360;2022-09-02T10:05:28;3.53;;;2.33;;
2390;SDS011;22957;50.824;4.360;2022-09-02T10:07:58;3.43;;;2.70;;
2390;SDS011;22957;50.824;4.360;2022-09-02T10:10:28;4.90;;;2.20;;
2390;SDS011;22957;50.824;4.360;2022-09-02T10:12:58;4.67;;;2.20;;
2390;SDS011;22957;50.824;4.360;2022-09-02T10:15:35;3.33;;;2.53;;
2390;SDS011;22957;50.824;4.360;2022-09-02T10:18:16;3.73;;;1.90;;
2390;SDS011;22957;50.824;4.360;2022-09-02T10:21:05;2.30;;;2.10;;
2390;SDS011;22957;50.824;4.360;2022-09-02T10:34:40;7.20;;;2.53;;
2390;SDS011;22957;50.824;4.360;2022-09-02T10:40:21;4.30;;;2.00;;
2390;SDS011;22957;50.824;4.360;2022-09-02T10:43:05;4.60;;;2.63;;
2390;SDS011;22957;50.824;4.360;2022-09-02T10:51:05;10.43;;;2.47;;
2390;SDS011;22957;50.824;4.360;2022-09-02T10:53:42;5.67;;;2.40;;
2390;SDS011;22957;50.824;4.360;2022-09-02T10:56:23;6.60;;;2.03;;
2390;SDS011;22957;50.824;4.360;2022-09-02T10:58:58;2.33;;;2.13;;
2390;SDS011;22957;50.824;4.360;2022-09-02T11:04:34;5.27;;;2.17;;
2390;SDS011;22957;50.824;4.360;2022-09-02T11:07:46;2.70;;;1.90;;
2390;SDS011;22957;50.824;4.360;2022-09-02T11:10:40;3.50;;;2.03;;
2390;SDS011;22957;50.824;4.360;2022-09-02T11:13:04;4.07;;;2.30;;
2390;SDS011;22957;50.824;4.360;2022-09-02T11:15:58;4.80;;;2.57;;
2390;SDS011;22957;50.824;4.360;2022-09-02T11:24:54;5.50;;;2.70;;
2390;SDS011;22957;50.824;4.360;2022-09-02T11:27:36;2.80;;;1.97;;
2390;SDS011;22957;50.824;4.360;2022-09-02T11:30:13;4.47;;;1.97;;
2390;SDS011;22957;50.824;4.360;2022-09-02T11:33:00;2.23;;;2.03;;
2390;SDS011;22957;50.824;4.360;2022-09-02T11:35:36;9.33;;;3.90;;
2390;SDS011;22957;50.824;4.360;2022-09-02T11:40:43;1.90;;;1.80;;
2390;SDS011;22957;50.824;4.360;2022-09-02T11:44:04;2.50;;;1.80;;
2390;SDS011;22957;50.824;4.360;2022-09-02T11:54:52;3.60;;;1.90;;
2390;SDS011;22957;50.824;4.360;2022-09-02T11:57:35;2.57;;;1.53;;
2390;SDS011;22957;50.824;4.360;2022-09-02T12:00:06;1.97;;;1.77;;
2390;SDS011;22957;50.824;4.360;2022-09-02T12:13:08;2.97;;;1.60;;
2390;SDS011;22957;50.824;4.360;2022-09-02T12:15:36;4.80;;;1.80;;
2390;SDS011;22957;50.824;4.360;2022-09-02T12:18:27;3.47;;;1.87;;
2390;SDS011;22957;50.824;4.360;2022-09-02T12:24:10;3.00;;;1.60;;
2390;SDS011;22957;50.824;4.360;2022-09-02T12:26:13;5.33;;;1.70;;
2390;SDS011;22957;50.824;4.360;2022-09-02T12:28:41;5.27;;;2.17;;
2390;SDS011;22957;50.824;4.360;2022-09-02T12:31:39;5.87;;;1.43;;
2390;SDS011;22957;50.824;4.360;2022-09-02T12:36:49;3.63;;;1.40;;
2390;SDS011;22957;50.824;4.360;2022-09-02T12:52:43;1.73;;;1.40;;
2390;SDS011;22957;50.824;4.360;2022-09-02T12:55:27;4.80;;;1.70;;
2390;SDS011;22957;50.824;4.360;2022-09-02T12:58:10;2.80;;;1.27;;
2390;SDS011;22957;50.824;4.360;2022-09-02T13:00:59;2.53;;;1.33;;
2390;SDS011;22957;50.824;4.360;2022-09-02T13:06:25;4.20;;;1.77;;
2390;SDS011;22957;50.824;4.360;2022-09-02T13:25:44;2.53;;;1.30;;
2390;SDS011;22957;50.824;4.360;2022-09-02T13:31:24;2.17;;;1.50;;
2390;SDS011;22957;50.824;4.360;2022-09-02T13:34:02;2.40;;;1.40;;
2390;SDS011;22957;50.824;4.360;2022-09-02T13:36:42;3.83;;;1.33;;
2390;SDS011;22957;50.824;4.360;2022-09-02T13:39:11;3.57;;;1.67;;
2390;SDS011;22957;50.824;4.360;2022-09-02T13:41:45;1.50;;;1.40;;
2390;SDS011;22957;50.824;4.360;2022-09-02T13:46:47;1.87;;;1.37;;
2390;SDS011;22957;50.824;4.360;2022-09-02T13:49:17;4.30;;;1.10;;
2390;SDS011;22957;50.824;4.360;2022-09-02T13:51:45;3.83;;;1.30;;
2390;SDS011;22957;50.824;4.360;2022-09-02T13:54:11;1.83;;;1.20;;
2390;SDS011;22957;50.824;4.360;2022-09-02T13:56:37;1.40;;;1.20;;
2390;SDS011;22957;50.824;4.360;2022-09-02T13:59:04;5.87;;;1.20;;
2390;SDS011;22957;50.824;4.360;2022-09-02T14:01:31;6.40;;;1.30;;
2390;SDS011;22957;50.824;4.360;2022-09-02T14:04:11;2.63;;;1.23;;
2390;SDS011;22957;50.824;4.360;2022-09-02T14:06:49;3.67;;;1.40;;
2390;SDS011;22957;50.824;4.360;2022-09-02T14:09:26;2.27;;;1.30;;
2390;SDS011;22957;50.824;4.360;2022-09-02T14:11:54;9.00;;;1.50;;
2390;SDS011;22957;50.824;4.360;2022-09-02T14:14:22;1.77;;;1.30;;
2390;SDS011;22957;50.824;4.360;2022-09-02T14:16:49;2.70;;;1.40;;
2390;SDS011;22957;50.824;4.360;2022-09-02T14:21:48;4.37;;;1.30;;
2390;SDS011;22957;50.824;4.360;2022-09-02T14:24:19;1.53;;;1.27;;
2390;SDS011;22957;50.824;4.360;2022-09-02T14:26:46;2.33;;;1.40;;
2390;SDS011;22957;50.824;4.360;2022-09-02T14:29:16;3.73;;;1.43;;
2390;SDS011;22957;50.824;4.360;2022-09-02T14:34:42;3.67;;;1.33;;
2390;SDS011;22957;50.824;4.360;2022-09-02T14:37:23;1.87;;;1.20;;
2390;SDS011;22957;50.824;4.360;2022-09-02T14:42:25;4.70;;;1.30;;
2390;SDS011;22957;50.824;4.360;2022-09-02T14:44:51;3.70;;;1.37;;
2390;SDS011;22957;50.824;4.360;2022-09-02T14:47:17;1.50;;;1.00;;
2390;SDS011;22957;50.824;4.360;2022-09-02T14:49:46;4.13;;;1.20;;
2390;SDS011;22957;50.824;4.360;2022-09-02T14:52:18;1.50;;;1.20;;
2390;SDS011;22957;50.824;4.360;2022-09-02T14:54:48;2.80;;;0.97;;
2390;SDS011;22957;50.824;4.360;2022-09-02T14:57:28;1.97;;;1.20;;
2390;SDS011;22957;50.824;4.360;2022-09-02T14:59:57;1.67;;;1.20;;
2390;SDS011;22957;50.824;4.360;2022-09-02T15:04:56;1.50;;;1.03;;
2390;SDS011;22957;50.824;4.360;2022-09-02T15:07:28;1.83;;;1.07;;
2390;SDS011;22957;50.824;4.360;2022-09-02T15:09:54;1.53;;;1.10;;
2390;SDS011;22957;50.824;4.360;2022-09-02T15:12:23;4.17;;;1.20;;
2390;SDS011;22957;50.824;4.360;2022-09-02T15:14:53;2.43;;;1.20;;
2390;SDS011;22957;50.824;4.360;2022-09-02T15:17:19;3.63;;;1.30;;
2390;SDS011;22957;50.824;4.360;2022-09-02T15:19:46;3.63;;;1.73;;
2390;SDS011;22957;50.824;4.360;2022-09-02T15:22:12;2.30;;;1.00;;
2390;SDS011;22957;50.824;4.360;2022-09-02T15:24:39;7.13;;;1.20;;
2390;SDS011;22957;50.824;4.360;2022-09-02T15:27:07;1.67;;;1.20;;
2390;SDS011;22957;50.824;4.360;2022-09-02T15:29:37;3.07;;;1.03;;
2390;SDS011;22957;50.824;4.360;2022-09-02T15:32:03;1.73;;;1.17;;
2390;SDS011;22957;50.824;4.360;2022-09-02T15:34:30;2.27;;;0.90;;
2390;SDS011;22957;50.824;4.360;2022-09-02T15:36:57;2.40;;;1.20;;
2390;SDS011;22957;50.824;4.360;2022-09-02T15:39:23;1.10;;;0.90;;
2390;SDS011;22957;50.824;4.360;2022-09-02T15:41:51;1.40;;;1.00;;
2390;SDS011;22957;50.824;4.360;2022-09-02T15:44:21;2.83;;;1.07;;
2390;SDS011;22957;50.824;4.360;2022-09-02T15:46:51;3.00;;;1.10;;
2390;SDS011;22957;50.824;4.360;2022-09-02T15:49:18;2.07;;;1.10;;
2390;SDS011;22957;50.824;4.360;2022-09-02T15:51:45;2.37;;;1.10;;
2390;SDS011;22957;50.824;4.360;2022-09-02T15:54:13;5.13;;;1.30;;
2390;SDS011;22957;50.824;4.360;2022-09-02T15:56:41;3.40;;;1.67;;
2390;SDS011;22957;50.824;4.360;2022-09-02T15:59:09;5.20;;;1.40;;
2390;SDS011;22957;50.824;4.360;2022-09-02T16:01:39;1.30;;;1.20;;
2390;SDS011;22957;50.824;4.360;2022-09-02T16:04:10;2.80;;;1.30;;
2390;SDS011;22957;50.824;4.360;2022-09-02T16:06:39;2.73;;;1.23;;
2390;SDS011;22957;50.824;4.360;2022-09-02T16:09:06;2.67;;;1.20;;
2390;SDS011;22957;50.824;4.360;2022-09-02T16:11:41;3.33;;;1.27;;
2390;SDS011;22957;50.824;4.360;2022-09-02T16:14:08;2.17;;;1.50;;
2390;SDS011;22957;50.824;4.360;2022-09-02T16:16:34;2.70;;;1.30;;
2390;SDS011;22957;50.824;4.360;2022-09-02T16:19:02;7.80;;;1.10;;
2390;SDS011;22957;50.824;4.360;2022-09-02T16:21:30;7.57;;;1.60;;
2390;SDS011;22957;50.824;4.360;2022-09-02T16:23:55;2.00;;;1.10;;
2390;SDS011;22957;50.824;4.360;2022-09-02T16:26:31;1.43;;;1.03;;
2390;SDS011;22957;50.824;4.360;2022-09-02T16:28:59;4.23;;;1.40;;
2390;SDS011;22957;50.824;4.360;2022-09-02T16:31:33;2.80;;;1.37;;
2390;SDS011;22957;50.824;4.360;2022-09-02T16:34:03;1.67;;;1.13;;
2390;SDS011;22957;50.824;4.360;2022-09-02T16:36:33;2.03;;;1.10;;
2390;SDS011;22957;50.824;4.360;2022-09-02T16:39:03;3.20;;;1.20;;
2390;SDS011;22957;50.824;4.360;2022-09-02T16:44:02;3.90;;;1.43;;
2390;SDS011;22957;50.824;4.360;2022-09-02T16:46:31;1.50;;;1.23;;
2390;SDS011;22957;50.824;4.360;2022-09-02T16:48:58;3.00;;;1.13;;
2390;SDS011;22957;50.824;4.360;2022-09-02T16:51:24;5.23;;;1.30;;
2390;SDS011;22957;50.824;4.360;2022-09-02T16:53:55;2.37;;;1.40;;
2390;SDS011;22957;50.824;4.360;2022-09-02T16:56:23;3.30;;;1.30;;
2390;SDS011;22957;50.824;4.360;2022-09-02T16:58:50;3.50;;;1.20;;
2390;SDS011;22957;50.824;4.360;2022-09-02T17:01:17;5.50;;;1.47;;
2390;SDS011;22957;50.824;4.360;2022-09-02T17:03:43;5.10;;;1.90;;
2390;SDS011;22957;50.824;4.360;2022-09-02T17:06:11;2.03;;;1.37;;
2390;SDS011;22957;50.824;4.360;2022-09-02T17:08:37;3.43;;;1.40;;
2390;SDS011;22957;50.824;4.360;2022-09-02T17:11:21;6.63;;;1.50;;
2390;SDS011;22957;50.824;4.360;2022-09-02T17:13:56;6.47;;;2.97;;
2390;SDS011;22957;50.824;4.360;2022-09-02T17:16:26;3.63;;;1.50;;
2390;SDS011;22957;50.824;4.360;2022-09-02T17:18:59;5.50;;;1.37;;